Time;durP1;ratioP1;P1;durP2;ratioP2;P2;SDS_P1;SDS_P2;PMS_P1;PMS_P2;Temp;Humidity;BMP_temperature;BMP_pressure;BME280_temperature;BME280_humidity;BME280_pressure;Samples;Min_cycle;Max_cycle;Signal;HPM_P1;HPM_P2
2023/08/18 00:02:51;;;;;;;2.42;1.38;;;;;;;16.76;100.00;101672.84;6275657;28;20085;-71
2023/08/18 00:05:53;;;;;;;2.00;0.98;;;;;;;16.77;100.00;101663.06;6275424;28;20425;-71
2023/08/18 00:08:54;;;;;;;3.13;1.30;;;;;;;16.77;100.00;101663.06;6275492;28;20049;-70
2023/08/18 00:11:57;;;;;;;2.40;1.38;;;;;;;16.83;100.00;101665.31;6275576;28;20388;-70
2023/08/18 00:14:59;;;;;;;1.67;1.20;;;;;;;16.81;100.00;101665.44;6275223;28;20048;-70
2023/08/18 00:18:00;;;;;;;2.20;1.55;;;;;;;16.81;100.00;101664.59;6275702;28;20074;-71
2023/08/18 00:21:01;;;;;;;3.47;1.65;;;;;;;16.80;100.00;101662.84;6275420;28;20048;-70
2023/08/18 00:24:03;;;;;;;2.08;1.85;;;;;;;16.88;100.00;101663.22;6274977;28;20353;-70
2023/08/18 00:27:06;;;;;;;3.10;1.50;;;;;;;16.87;100.00;101665.03;6275515;28;20052;-70
2023/08/18 00:30:10;;;;;;;2.35;1.17;;;;;;;16.88;100.00;101658.75;6275104;28;20049;-71
2023/08/18 00:33:11;;;;;;;1.98;1.20;;;;;;;16.85;100.00;101651.00;6275463;28;20053;-70
2023/08/18 00:36:13;;;;;;;3.83;1.38;;;;;;;16.86;100.00;101647.41;6274993;28;20143;-70
2023/08/18 00:39:15;;;;;;;2.70;1.10;;;;;;;16.85;100.00;101643.03;6275585;28;20049;-70
2023/08/18 00:42:18;;;;;;;2.80;1.10;;;;;;;16.88;100.00;101656.09;6275261;28;20055;-70
2023/08/18 00:45:19;;;;;;;3.47;1.60;;;;;;;16.89;100.00;101643.66;6275137;28;20041;-71
2023/08/18 00:48:22;;;;;;;1.58;1.13;;;;;;;16.89;100.00;101639.22;6275904;28;20056;-70
2023/08/18 00:51:23;;;;;;;3.33;1.30;;;;;;;16.88;100.00;101639.31;6268008;28;20056;-70
2023/08/18 00:54:27;;;;;;;1.70;1.10;;;;;;;16.88;100.00;101626.91;6271429;28;20045;-71
2023/08/18 00:57:30;;;;;;;1.80;1.38;;;;;;;16.84;100.00;101635.16;6280252;28;20060;-71
2023/08/18 01:00:32;;;;;;;2.75;1.10;;;;;;;16.81;100.00;101635.38;6270570;28;20048;-70
2023/08/18 01:03:35;;;;;;;2.75;1.20;;;;;;;16.81;100.00;101632.72;6264458;28;20049;-70
2023/08/18 01:06:38;;;;;;;1.63;1.15;;;;;;;16.79;100.00;101629.31;6275595;28;20142;-71
2023/08/18 01:09:40;;;;;;;4.93;1.20;;;;;;;16.77;100.00;101632.06;6279613;28;20045;-70
2023/08/18 01:12:54;;;;;;;6.63;1.00;;;;;;;16.76;100.00;101633.03;6279771;28;20048;-71
2023/08/18 01:16:00;;;;;;;2.58;1.33;;;;;;;16.78;100.00;101622.28;6279489;28;20071;-70
2023/08/18 01:19:01;;;;;;;2.72;1.60;;;;;;;16.80;100.00;101629.19;6279633;28;20049;-70
2023/08/18 01:22:11;;;;;;;2.45;1.27;;;;;;;16.80;100.00;101623.03;6273842;28;20429;-71
2023/08/18 01:25:14;;;;;;;1.77;1.27;;;;;;;16.78;100.00;101625.81;6255410;28;20045;-70
2023/08/18 01:28:15;;;;;;;2.38;1.33;;;;;;;16.76;100.00;101621.53;6254479;28;20050;-71
2023/08/18 01:31:24;;;;;;;3.35;1.35;;;;;;;16.73;100.00;101617.28;6254435;28;20349;-71
2023/08/18 01:34:28;;;;;;;2.67;1.50;;;;;;;16.69;100.00;101608.63;6254079;28;20348;-70
2023/08/18 01:37:31;;;;;;;3.30;1.45;;;;;;;16.68;100.00;101609.59;6254473;28;20052;-70
2023/08/18 01:40:34;;;;;;;3.15;1.50;;;;;;;16.69;100.00;101605.97;6254152;28;20053;-70
2023/08/18 01:43:36;;;;;;;2.45;1.38;;;;;;;16.67;100.00;101607.06;6254285;28;20049;-71
2023/08/18 01:46:37;;;;;;;1.70;1.20;;;;;;;16.70;100.00;101609.47;6253804;28;20055;-71
2023/08/18 01:49:38;;;;;;;3.65;1.60;;;;;;;16.71;100.00;101611.19;6254166;28;20068;-71
2023/08/18 01:52:40;;;;;;;1.40;1.30;;;;;;;16.70;100.00;101605.03;6253999;28;20061;-70
2023/08/18 01:55:43;;;;;;;2.20;1.10;;;;;;;16.70;100.00;101599.72;6253603;28;20052;-71
2023/08/18 01:58:44;;;;;;;6.38;1.80;;;;;;;16.72;100.00;101595.22;6254074;28;20500;-70
2023/08/18 02:01:46;;;;;;;2.20;1.30;;;;;;;16.71;100.00;101593.47;6253077;28;20053;-71
2023/08/18 02:04:47;;;;;;;3.45;1.25;;;;;;;16.73;100.00;101598.72;6253470;28;20045;-71
2023/08/18 02:07:48;;;;;;;6.82;1.50;;;;;;;16.76;100.00;101601.16;6253626;28;20053;-70
2023/08/18 02:10:51;;;;;;;3.72;1.38;;;;;;;16.76;100.00;101595.88;6253654;28;20053;-71
2023/08/18 02:13:53;;;;;;;4.60;2.40;;;;;;;16.72;100.00;101595.22;6252606;28;20053;-71
2023/08/18 02:16:54;;;;;;;7.50;1.33;;;;;;;16.72;100.00;101589.91;6253458;28;20052;-71
2023/08/18 02:19:58;;;;;;;1.40;1.30;;;;;;;16.72;100.00;101592.56;6253309;28;20061;-71
2023/08/18 02:22:59;;;;;;;3.92;1.63;;;;;;;16.73;100.00;101583.63;6253451;28;20045;-71
2023/08/18 02:26:04;;;;;;;1.88;0.98;;;;;;;16.78;100.00;101585.13;6252888;28;20049;-70
2023/08/18 02:29:05;;;;;;;2.10;1.30;;;;;;;16.79;100.00;101579.72;6253184;28;20054;-70
2023/08/18 02:32:07;;;;;;;2.78;1.10;;;;;;;16.80;100.00;101567.28;6253234;28;20076;-70
2023/08/18 02:35:09;;;;;;;1.38;1.10;;;;;;;16.76;100.00;101576.41;6252931;28;20050;-70
2023/08/18 02:38:14;;;;;;;1.90;1.20;;;;;;;16.72;100.00;101566.00;6252965;28;20054;-71
2023/08/18 02:41:18;;;;;;;1.20;1.10;;;;;;;16.72;100.00;101568.66;6253027;28;20071;-71
2023/08/18 02:44:20;;;;;;;2.13;1.10;;;;;;;16.69;100.00;101560.84;6252760;28;20060;-70
2023/08/18 02:47:22;;;;;;;3.05;1.13;;;;;;;16.68;100.00;101564.47;6252667;28;20136;-71
2023/08/18 02:50:23;;;;;;;2.92;1.50;;;;;;;16.70;100.00;101559.91;6252817;28;20053;-70
2023/08/18 02:53:24;;;;;;;5.05;1.17;;;;;;;16.71;100.00;101566.06;6262944;28;20056;-71
2023/08/18 02:56:28;;;;;;;2.05;1.20;;;;;;;16.67;100.00;101554.81;6277174;28;20048;-70
2023/08/18 02:59:29;;;;;;;4.53;1.70;;;;;;;16.68;100.00;101556.50;6277104;28;20055;-70
2023/08/18 03:02:31;;;;;;;1.95;1.40;;;;;;;16.70;100.00;101551.09;6268810;28;20052;-71
2023/08/18 03:05:35;;;;;;;2.05;0.88;;;;;;;16.74;100.00;101566.75;6271676;28;20045;-71
2023/08/18 03:08:39;;;;;;;2.03;1.17;;;;;;;16.70;100.00;101562.56;6277064;28;20056;-70
2023/08/18 03:11:41;;;;;;;1.88;1.30;;;;;;;16.72;100.00;101547.44;6276112;28;20049;-70
2023/08/18 03:14:43;;;;;;;3.70;1.45;;;;;;;16.69;100.00;101554.72;6270765;28;20047;-71
2023/08/18 03:17:44;;;;;;;1.92;1.58;;;;;;;16.69;100.00;101555.56;6273498;28;20049;-71
2023/08/18 03:20:47;;;;;;;2.72;1.33;;;;;;;16.77;100.00;101552.44;6276504;28;20056;-70
2023/08/18 03:23:48;;;;;;;1.55;1.17;;;;;;;16.81;100.00;101542.47;6276826;28;20048;-71
2023/08/18 03:26:51;;;;;;;2.05;1.40;;;;;;;16.70;100.00;101545.78;6276221;28;20049;-70
2023/08/18 03:29:55;;;;;;;1.20;1.05;;;;;;;16.68;100.00;101537.94;6276377;28;20053;-71
2023/08/18 03:32:57;;;;;;;2.63;1.45;;;;;;;16.69;100.00;101546.75;6276213;28;20075;-70
2023/08/18 03:35:58;;;;;;;1.25;1.10;;;;;;;16.69;100.00;101547.59;6276193;28;20055;-71
2023/08/18 03:38:59;;;;;;;1.88;1.27;;;;;;;16.71;100.00;101552.78;6276211;28;20183;-70
2023/08/18 03:42:02;;;;;;;2.05;1.33;;;;;;;16.72;100.00;101554.53;6263338;28;20052;-70
2023/08/18 03:45:05;;;;;;;2.90;1.17;;;;;;;16.69;100.00;101544.94;6256559;28;20437;-71
2023/08/18 03:48:07;;;;;;;1.48;1.10;;;;;;;16.75;100.00;101543.69;6251568;28;20056;-71
2023/08/18 03:51:09;;;;;;;2.45;1.38;;;;;;;16.68;100.00;101545.91;6251177;28;20052;-71
2023/08/18 03:54:10;;;;;;;3.47;1.48;;;;;;;16.70;100.00;101545.78;6239375;28;20061;-71
2023/08/18 03:57:13;;;;;;;2.63;1.58;;;;;;;16.69;100.00;101552.91;6239485;28;20045;-71
2023/08/18 04:00:17;;;;;;;1.48;1.27;;;;;;;16.71;100.00;101547.47;6228995;28;20061;-71
2023/08/18 04:03:19;;;;;;;2.08;1.33;;;;;;;16.69;100.00;101550.25;6226562;28;20119;-71
2023/08/18 04:06:20;;;;;;;2.30;1.30;;;;;;;16.69;100.00;101546.75;6226033;28;20046;-71
2023/08/18 04:09:21;;;;;;;2.22;1.35;;;;;;;16.69;100.00;101541.44;6236875;28;20053;-71
2023/08/18 04:12:24;;;;;;;2.42;1.20;;;;;;;16.67;100.00;101546.00;6237097;28;20042;-70
2023/08/18 04:15:26;;;;;;;3.60;1.20;;;;;;;16.67;100.00;101554.81;6238386;28;20057;-71
2023/08/18 04:18:27;;;;;;;1.83;1.38;;;;;;;16.68;100.00;101556.50;6237446;28;20045;-71
2023/08/18 04:21:29;;;;;;;1.30;1.20;;;;;;;16.71;100.00;101558.09;6238317;28;20432;-71
2023/08/18 04:24:30;;;;;;;1.80;1.35;;;;;;;16.78;100.00;101559.44;6237196;28;20401;-71
2023/08/18 04:27:33;;;;;;;1.60;1.02;;;;;;;16.79;100.00;101555.81;6237613;28;20053;-70
2023/08/18 04:30:35;;;;;;;2.58;1.40;;;;;;;16.75;100.00;101559.63;6238382;28;20091;-71
2023/08/18 04:33:36;;;;;;;2.13;1.50;;;;;;;16.74;100.00;101555.28;6236785;28;20080;-71
2023/08/18 04:36:38;;;;;;;2.70;1.60;;;;;;;16.75;100.00;101556.97;6238778;28;20042;-71
2023/08/18 04:39:39;;;;;;;1.45;1.33;;;;;;;16.79;100.00;101550.50;6241755;28;20330;-71
2023/08/18 04:42:42;;;;;;;2.60;1.27;;;;;;;16.76;100.00;101561.34;6240942;28;20054;-70
2023/08/18 04:45:44;;;;;;;2.10;1.30;;;;;;;16.77;100.00;101554.25;6237989;28;20049;-70
2023/08/18 04:48:45;;;;;;;5.35;1.48;;;;;;;16.75;100.00;101549.00;6236999;28;20053;-71
2023/08/18 04:51:46;;;;;;;3.08;1.58;;;;;;;16.74;100.00;101549.97;6286721;22;20045;-70
2023/08/18 04:54:48;;;;;;;5.32;1.80;;;;;;;16.79;100.00;101553.16;6285095;28;20041;-69
2023/08/18 04:57:50;;;;;;;2.83;1.73;;;;;;;16.77;100.00;101556.91;6287182;28;20066;-70
2023/08/18 05:00:53;;;;;;;2.83;1.80;;;;;;;16.79;100.00;101549.66;6286883;28;20353;-71
2023/08/18 05:03:54;;;;;;;3.35;1.50;;;;;;;16.81;100.00;101553.94;6286006;28;20059;-70
2023/08/18 05:06:56;;;;;;;1.92;1.63;;;;;;;16.82;100.00;101552.13;6287530;28;20041;-70
2023/08/18 05:09:57;;;;;;;2.33;1.73;;;;;;;16.84;100.00;101550.19;6285822;28;20049;-70
2023/08/18 05:13:00;;;;;;;1.90;1.50;;;;;;;16.87;100.00;101560.63;6288147;28;20049;-71
2023/08/18 05:16:03;;;;;;;1.63;1.15;;;;;;;16.87;100.00;101552.66;6285119;28;20048;-70
2023/08/18 05:19:05;;;;;;;11.13;3.30;;;;;;;16.88;100.00;101554.34;6287607;28;20129;-71
2023/08/18 05:22:06;;;;;;;3.15;1.55;;;;;;;16.88;100.00;101557.00;6286391;28;20071;-70
2023/08/18 05:25:09;;;;;;;3.50;1.50;;;;;;;16.89;100.00;101556.91;6286347;28;20047;-71
2023/08/18 05:28:13;;;;;;;2.45;1.45;;;;;;;16.91;100.00;101562.13;6286718;28;20041;-69
2023/08/18 05:31:15;;;;;;;1.92;1.35;;;;;;;16.91;100.00;101554.16;6286032;28;20098;-70
2023/08/18 05:34:16;;;;;;;1.90;1.38;;;;;;;16.92;100.00;101546.09;6286953;28;20360;-70
2023/08/18 05:37:17;;;;;;;2.38;1.17;;;;;;;16.93;100.00;101552.25;6288059;28;20091;-70
2023/08/18 05:40:19;;;;;;;3.17;1.50;;;;;;;16.96;100.00;101549.38;6291396;28;20049;-70
2023/08/18 05:43:22;;;;;;;1.80;1.20;;;;;;;16.98;100.00;101553.63;6290414;28;20056;-70
2023/08/18 05:46:23;;;;;;;3.55;1.40;;;;;;;17.05;100.00;101559.41;6290158;28;20437;-69
2023/08/18 05:49:24;;;;;;;2.38;1.50;;;;;;;17.11;100.00;101563.44;6291010;28;20048;-70
2023/08/18 05:52:26;;;;;;;6.97;1.48;;;;;;;17.07;100.00;101560.13;6289991;28;20056;-71
2023/08/18 05:55:27;;;;;;;2.40;1.40;;;;;;;17.06;100.00;101565.56;6290925;28;20053;-70
2023/08/18 05:58:30;;;;;;;2.15;1.55;;;;;;;17.10;100.00;101562.59;6289754;28;20074;-72
2023/08/18 06:01:31;;;;;;;5.55;1.70;;;;;;;17.14;100.00;101558.78;6292126;28;20060;-71
2023/08/18 06:04:33;;;;;;;1.88;1.42;;;;;;;17.14;100.00;101560.56;6288863;28;20060;-71
2023/08/18 06:07:34;;;;;;;3.08;1.60;;;;;;;17.20;100.00;101560.16;6289041;28;20045;-71
2023/08/18 06:10:36;;;;;;;4.35;1.30;;;;;;;17.21;100.00;101560.06;6290949;28;20469;-71
2023/08/18 06:13:38;;;;;;;1.67;1.38;;;;;;;17.20;100.00;101562.81;6288842;28;20436;-71
2023/08/18 06:16:40;;;;;;;1.83;1.40;;;;;;;17.19;100.00;101561.97;6285763;28;20045;-71
2023/08/18 06:19:41;;;;;;;2.50;1.60;;;;;;;17.18;100.00;101575.34;6278286;28;20048;-71
2023/08/18 06:22:43;;;;;;;4.55;1.60;;;;;;;17.24;100.00;101570.47;6278024;28;20064;-71
2023/08/18 06:25:44;;;;;;;4.68;1.75;;;;;;;17.25;100.00;101571.31;6277600;28;20071;-71
2023/08/18 06:28:47;;;;;;;2.85;1.50;;;;;;;17.30;100.00;101566.53;6277825;28;20049;-71
2023/08/18 06:31:48;;;;;;;2.92;1.60;;;;;;;17.33;100.00;101568.97;6277938;28;20048;-71
2023/08/18 06:34:50;;;;;;;3.65;1.75;;;;;;;17.38;100.00;101573.97;6277389;28;20049;-71
2023/08/18 06:37:52;;;;;;;3.25;1.80;;;;;;;17.38;100.00;101569.50;6277830;28;20045;-71
2023/08/18 06:40:53;;;;;;;4.43;1.38;;;;;;;17.45;100.00;101562.00;6286401;28;20052;-72
2023/08/18 06:43:56;;;;;;;2.03;1.67;;;;;;;17.51;100.00;101569.53;6289756;28;20049;-71
2023/08/18 06:46:57;;;;;;;2.33;1.52;;;;;;;17.50;100.00;101566.03;6289072;28;20052;-71
2023/08/18 06:49:59;;;;;;;6.95;2.22;;;;;;;17.49;100.00;101577.63;6289012;28;20049;-71
2023/08/18 06:53:01;;;;;;;3.03;1.67;;;;;;;17.52;100.00;101573.88;6290876;28;20048;-71
2023/08/18 06:56:03;;;;;;;4.03;1.60;;;;;;;17.59;100.00;101569.84;6288669;28;20197;-70
2023/08/18 06:59:06;;;;;;;3.88;1.73;;;;;;;17.66;100.00;101571.09;6286685;28;20041;-70
2023/08/18 07:02:08;;;;;;;5.75;2.08;;;;;;;17.72;100.00;101576.00;6287403;28;20472;-70
2023/08/18 07:05:09;;;;;;;1.85;1.50;;;;;;;17.77;100.00;101570.41;6290911;28;20048;-71
2023/08/18 07:08:11;;;;;;;11.60;2.10;;;;;;;17.85;100.00;101568.06;6287962;28;20056;-71
2023/08/18 07:11:12;;;;;;;1.77;1.48;;;;;;;17.88;100.00;101575.78;6289430;28;20348;-71
2023/08/18 07:14:15;;;;;;;2.70;2.03;;;;;;;17.87;100.00;101581.25;6287755;28;20052;-71
2023/08/18 07:17:17;;;;;;;4.30;1.90;;;;;;;17.90;100.00;101575.72;6291621;28;20055;-70
2023/08/18 07:20:18;;;;;;;2.30;1.83;;;;;;;17.95;100.00;101576.22;6288963;28;20342;-70
2023/08/18 07:23:20;;;;;;;6.78;2.10;;;;;;;17.97;100.00;101576.97;6288820;28;20056;-70
2023/08/18 07:26:21;;;;;;;3.72;2.40;;;;;;;18.03;100.00;101581.81;6285415;28;20333;-70
2023/08/18 07:29:24;;;;;;;2.95;2.10;;;;;;;18.08;100.00;101581.53;6297882;28;20048;-70
2023/08/18 07:32:25;;;;;;;5.95;2.83;;;;;;;18.16;100.00;101584.47;6296986;28;20049;-70
2023/08/18 07:35:27;;;;;;;3.33;2.05;;;;;;;18.16;100.00;101576.47;6289001;28;20060;-70
2023/08/18 07:38:29;;;;;;;4.30;2.40;;;;;;;18.16;100.00;101581.81;6301168;28;20049;-70
2023/08/18 07:41:31;;;;;;;6.53;2.67;;;;;;;18.21;100.00;101577.88;6300888;28;20364;-70
2023/08/18 07:44:33;;;;;;;3.60;2.03;;;;;;;18.31;100.00;101579.88;6298056;28;20079;-70
2023/08/18 07:47:37;;;;;;;3.20;2.45;;;;;;;18.30;100.00;101572.81;6295547;28;20057;-71
2023/08/18 07:50:41;;;;;;;5.82;2.42;;;;;;;18.35;100.00;101574.22;6294241;28;20048;-71
2023/08/18 07:53:42;;;;;;;3.80;2.30;;;;;;;18.37;100.00;101569.63;6292494;28;20041;-72
2023/08/18 07:56:44;;;;;;;2.83;2.05;;;;;;;18.41;100.00;101571.09;6296546;28;20040;-72
2023/08/18 07:59:46;;;;;;;3.25;2.15;;;;;;;18.49;100.00;101571.38;6300336;28;20440;-70
2023/08/18 08:02:49;;;;;;;4.90;2.55;;;;;;;18.49;100.00;101573.22;6295437;28;20357;-70
2023/08/18 08:05:50;;;;;;;3.15;2.17;;;;;;;18.56;100.00;101573.59;6296805;28;20071;-70
2023/08/18 08:08:52;;;;;;;4.45;2.38;;;;;;;18.57;100.00;101567.28;6300460;28;20448;-70
2023/08/18 08:11:53;;;;;;;4.35;2.47;;;;;;;18.64;100.00;101564.06;6300474;28;20052;-71
2023/08/18 08:14:56;;;;;;;3.50;2.60;;;;;;;18.72;100.00;101567.06;6300018;28;20059;-72
2023/08/18 08:17:58;;;;;;;8.52;2.90;;;;;;;18.79;100.00;101566.59;6289691;28;20047;-72
2023/08/18 08:21:00;;;;;;;8.38;3.00;;;;;;;18.77;100.00;101561.38;6300152;28;20052;-72
2023/08/18 08:24:01;;;;;;;4.50;2.80;;;;;;;18.80;100.00;101557.63;6299942;28;20057;-72
2023/08/18 08:27:04;;;;;;;5.93;2.75;;;;;;;18.82;100.00;101561.88;6300150;28;20060;-73
2023/08/18 08:30:09;;;;;;;6.88;2.78;;;;;;;18.83;100.00;101563.56;6300164;28;20432;-72
2023/08/18 08:33:10;;;;;;;4.55;2.88;;;;;;;18.85;100.00;101558.13;6300217;28;20179;-73
2023/08/18 08:36:12;;;;;;;4.85;2.58;;;;;;;18.91;100.00;101555.03;6299738;28;20045;-72
2023/08/18 08:39:13;;;;;;;4.05;2.60;;;;;;;18.90;100.00;101554.16;6293435;28;20056;-72
2023/08/18 08:42:15;;;;;;;3.08;2.22;;;;;;;19.01;100.00;101556.00;6283185;28;20056;-73
2023/08/18 08:45:18;;;;;;;4.75;2.25;;;;;;;18.99;100.00;101556.13;6278344;28;20053;-76
2023/08/18 08:48:20;;;;;;;3.50;2.42;;;;;;;19.04;100.00;101558.47;6296521;28;20047;-71
2023/08/18 08:51:26;;;;;;;2.83;2.38;;;;;;;19.10;100.00;101565.97;6289009;28;20357;-70
2023/08/18 08:54:30;;;;;;;6.55;2.25;;;;;;;19.13;100.00;101560.41;6290905;28;20467;-71
2023/08/18 08:57:32;;;;;;;5.20;3.20;;;;;;;19.16;100.00;101554.84;6286219;28;20041;-72
2023/08/18 09:00:35;;;;;;;4.38;3.25;;;;;;;19.22;100.00;101557.03;6299439;28;20341;-70
2023/08/18 09:03:37;;;;;;;4.85;2.60;;;;;;;19.27;100.00;101546.88;6299770;28;20056;-69
2023/08/18 09:06:38;;;;;;;5.40;2.58;;;;;;;19.37;100.00;101541.69;6290848;28;20044;-72
2023/08/18 09:09:39;;;;;;;4.18;3.00;;;;;;;19.48;100.00;101541.72;6299533;28;20356;-72
2023/08/18 09:12:41;;;;;;;7.25;4.18;;;;;;;19.56;100.00;101532.25;6304140;28;20056;-72
2023/08/18 09:15:45;;;;;;;17.85;10.07;;;;;;;19.58;100.00;101527.66;6304147;28;20048;-73
2023/08/18 09:18:46;;;;;;;5.55;3.60;;;;;;;19.64;100.00;101521.84;6304611;28;20048;-72
2023/08/18 09:21:50;;;;;;;4.05;3.00;;;;;;;19.71;100.00;101520.38;6291943;28;20049;-73
2023/08/18 09:24:52;;;;;;;4.35;2.67;;;;;;;19.80;100.00;101524.97;6290305;28;20084;-70
2023/08/18 09:27:53;;;;;;;3.63;2.60;;;;;;;19.94;100.00;101524.75;6290089;28;20037;-73
2023/08/18 09:30:57;;;;;;;6.82;3.00;;;;;;;19.98;100.00;101514.66;6291346;28;20352;-73
2023/08/18 09:33:59;;;;;;;4.50;3.40;;;;;;;20.07;100.00;101505.91;6291578;28;20044;-73
2023/08/18 09:37:00;;;;;;;4.40;3.08;;;;;;;20.17;100.00;101506.03;6289816;28;20052;-74
2023/08/18 09:40:02;;;;;;;3.47;2.80;;;;;;;20.26;100.00;101497.25;6289641;28;20084;-73
2023/08/18 09:43:04;;;;;;;4.70;3.08;;;;;;;20.30;100.00;101506.69;6291714;28;20040;-73
2023/08/18 09:46:08;;;;;;;4.65;3.15;;;;;;;20.41;100.00;101506.66;6281447;28;20052;-73
2023/08/18 09:49:11;;;;;;;3.60;2.88;;;;;;;20.57;100.00;101500.06;6278873;28;20056;-73
2023/08/18 09:52:14;;;;;;;6.07;3.22;;;;;;;20.76;100.00;101493.06;6278388;28;20049;-71
2023/08/18 09:55:20;;;;;;;7.60;3.13;;;;;;;20.80;100.00;101500.81;6278325;28;20124;-73
2023/08/18 09:58:28;;;;;;;7.38;3.65;;;;;;;20.85;100.00;101487.91;6282149;28;20359;-73
2023/08/18 10:01:35;;;;;;;6.60;3.15;;;;;;;20.86;100.00;101490.47;6291029;28;20040;-71
2023/08/18 10:04:39;;;;;;;5.00;2.90;;;;;;;20.87;100.00;101486.81;6290132;28;20132;-72
2023/08/18 10:07:41;;;;;;;5.90;3.47;;;;;;;20.96;100.00;101491.38;6289647;28;20344;-71
2023/08/18 10:10:43;;;;;;;4.57;3.15;;;;;;;21.24;100.00;101481.81;6290857;28;20048;-73
2023/08/18 10:13:45;;;;;;;3.97;3.08;;;;;;;21.25;100.00;101472.81;6288981;28;20048;-71
2023/08/18 10:16:52;;;;;;;3.95;2.80;;;;;;;21.41;100.00;101475.03;6291049;28;20471;-77
2023/08/18 10:19:55;;;;;;;6.32;3.05;;;;;;;21.24;100.00;101473.78;6303169;28;20060;-77
2023/08/18 10:22:57;;;;;;;5.75;3.78;;;;;;;21.39;100.00;101473.47;6296079;28;20048;-71
2023/08/18 10:25:59;;;;;;;4.97;3.55;;;;;;;21.39;100.00;101469.00;6277617;28;20053;-71
2023/08/18 10:29:15;;;;;;;4.88;3.40;;;;;;;21.48;100.00;101462.84;6278013;28;20049;-72
2023/08/18 10:32:18;;;;;;;6.28;3.47;;;;;;;21.44;100.00;101464.09;6276901;28;20049;-72
2023/08/18 10:35:21;;;;;;;7.78;3.53;;;;;;;21.74;100.00;101465.84;6276692;28;20041;-71
2023/08/18 10:38:27;;;;;;;3.25;2.70;;;;;;;21.79;100.00;101463.63;6277492;28;20041;-71
2023/08/18 10:41:29;;;;;;;11.30;3.40;;;;;;;21.72;100.00;101464.31;6277876;28;20052;-71
2023/08/18 10:44:31;;;;;;;3.88;3.10;;;;;;;21.92;100.00;101463.38;6277285;28;20063;-71
2023/08/18 10:47:35;;;;;;;6.40;3.35;;;;;;;22.08;100.00;101465.53;6277315;28;20048;-71
2023/08/18 10:50:40;;;;;;;7.10;3.22;;;;;;;22.08;100.00;101457.50;6277089;28;20330;-72
2023/08/18 10:53:42;;;;;;;6.50;3.47;;;;;;;22.36;100.00;101457.69;6313227;22;20059;-71
2023/08/18 10:56:43;;;;;;;4.88;3.50;;;;;;;22.50;100.00;101460.75;6301231;28;20187;-71
2023/08/18 10:59:45;;;;;;;4.07;3.25;;;;;;;22.47;100.00;101457.53;6300752;28;20456;-71
2023/08/18 11:02:50;;;;;;;7.13;3.88;;;;;;;22.53;100.00;101455.13;6290481;28;20052;-71
2023/08/18 11:05:51;;;;;;;5.90;3.67;;;;;;;22.60;100.00;101451.88;6298240;28;20448;-71
2023/08/18 11:08:54;;;;;;;6.00;3.75;;;;;;;22.63;100.00;101433.69;6301520;28;20078;-71
2023/08/18 11:11:55;;;;;;;7.50;4.30;;;;;;;22.78;100.00;101437.59;6295207;28;20353;-71
2023/08/18 11:14:57;;;;;;;5.22;3.67;;;;;;;22.82;100.00;101422.06;6293035;28;20048;-70
2023/08/18 11:18:00;;;;;;;6.65;4.10;;;;;;;22.86;100.00;101433.38;6299597;28;20051;-71
2023/08/18 11:21:02;;;;;;;5.28;3.83;;;;;;;23.08;100.00;101422.31;6292954;28;20113;-71
2023/08/18 11:24:07;;;;;;;6.00;3.63;;;;;;;23.16;100.00;101426.94;6285562;28;20504;-71
2023/08/18 11:27:08;;;;;;;6.20;4.05;;;;;;;23.42;100.00;101427.94;6276567;28;20082;-71
2023/08/18 11:30:11;;;;;;;6.35;4.15;;;;;;;23.52;100.00;101423.38;6276313;28;20052;-71
2023/08/18 11:33:15;;;;;;;4.60;3.55;;;;;;;23.63;100.00;101418.81;6275364;28;20118;-73
2023/08/18 11:36:16;;;;;;;5.70;3.72;;;;;;;23.64;100.00;101415.13;6276011;28;20470;-71
2023/08/18 11:39:18;;;;;;;6.30;3.70;;;;;;;23.67;100.00;101410.34;6276095;28;20330;-71
2023/08/18 11:42:21;;;;;;;5.85;3.80;;;;;;;23.98;100.00;101399.22;6276110;28;20053;-71
2023/08/18 11:45:24;;;;;;;6.03;4.25;;;;;;;24.20;100.00;101398.75;6275978;28;20049;-71
2023/08/18 11:48:28;;;;;;;4.30;3.55;;;;;;;24.59;100.00;101405.66;6276055;28;20056;-71
2023/08/18 11:51:29;;;;;;;6.07;4.40;;;;;;;24.73;100.00;101397.84;6285884;28;20060;-71
2023/08/18 11:54:33;;;;;;;5.15;3.90;;;;;;;24.95;100.00;101393.78;6300306;28;20063;-72
2023/08/18 11:57:35;;;;;;;7.55;4.20;;;;;;;24.97;100.00;101390.94;6300736;28;20051;-71
2023/08/18 12:00:38;;;;;;;5.97;4.47;;;;;;;25.14;100.00;101391.91;6286920;28;20055;-71
2023/08/18 12:03:41;;;;;;;8.25;3.88;;;;;;;25.34;100.00;101392.47;6295272;28;20045;-71
2023/08/18 12:06:43;;;;;;;6.05;4.53;;;;;;;25.74;100.00;101380.97;6290463;28;20052;-70
2023/08/18 12:09:45;;;;;;;6.05;4.40;;;;;;;25.95;100.00;101380.56;6295574;28;20048;-70
2023/08/18 12:12:51;;;;;;;5.20;3.42;;;;;;;26.07;100.00;101384.59;6300621;28;20129;-71
2023/08/18 12:15:52;;;;;;;6.25;4.32;;;;;;;26.17;100.00;101382.59;6300050;28;20356;-71
2023/08/18 12:18:55;;;;;;;5.15;3.70;;;;;;;26.20;100.00;101384.09;6300425;28;20052;-71
2023/08/18 12:21:56;;;;;;;6.82;3.90;;;;;;;26.19;100.00;101380.56;6300099;28;20056;-71
2023/08/18 12:24:58;;;;;;;5.13;3.67;;;;;;;26.34;100.00;101377.19;6276914;28;20053;-71
2023/08/18 12:28:00;;;;;;;7.10;3.88;;;;;;;26.58;100.00;101371.81;6283288;28;20322;-69
2023/08/18 12:31:02;;;;;;;4.53;3.75;;;;;;;26.62;100.00;101366.91;6297739;28;20436;-71
2023/08/18 12:34:06;;;;;;;7.63;3.50;;;;;;;26.73;100.00;101370.06;6299734;28;20129;-69
2023/08/18 12:37:08;;;;;;;5.65;3.63;;;;;;;26.84;100.00;101370.72;6300063;28;20352;-69
2023/08/18 12:40:10;;;;;;;5.45;3.70;;;;;;;26.81;100.00;101370.06;6300129;28;20095;-69
2023/08/18 12:43:12;;;;;;;5.72;3.65;;;;;;;26.68;100.00;101372.44;6299977;28;20049;-70
2023/08/18 12:46:13;;;;;;;4.78;3.70;;;;;;;26.75;100.00;101365.38;6303608;28;20048;-70
2023/08/18 12:49:16;;;;;;;5.03;4.32;;;;;;;26.82;100.00;101368.19;6304699;28;20044;-72
2023/08/18 12:52:18;;;;;;;5.25;4.30;;;;;;;26.78;100.00;101362.31;6304807;28;20051;-72
2023/08/18 12:55:19;;;;;;;5.55;3.88;;;;;;;26.53;100.00;101368.78;6302740;28;20058;-73
2023/08/18 12:58:21;;;;;;;5.22;3.72;;;;;;;26.49;100.00;101368.28;6278961;28;20072;-70
2023/08/18 13:01:22;;;;;;;8.02;4.13;;;;;;;26.58;100.00;101362.88;6281443;28;20369;-72
2023/08/18 13:04:25;;;;;;;4.53;3.65;;;;;;;26.87;100.00;101356.91;6296136;28;20052;-70
2023/08/18 13:07:27;;;;;;;10.02;4.18;;;;;;;27.32;100.00;101350.84;6304407;28;20056;-70
2023/08/18 13:10:29;;;;;;;4.93;3.65;;;;;;;27.70;100.00;101349.06;6304452;28;20364;-69
2023/08/18 13:13:30;;;;;;;6.80;3.90;;;;;;;27.90;100.00;101357.59;6294991;28;20326;-70
2023/08/18 13:16:34;;;;;;;4.80;3.80;;;;;;;28.11;100.00;101359.59;6297366;28;20059;-69
2023/08/18 13:19:37;;;;;;;5.32;4.18;;;;;;;28.28;100.00;101353.03;6304308;28;20045;-69
2023/08/18 13:22:40;;;;;;;4.13;3.33;;;;;;;28.35;100.00;101355.06;6287505;28;20049;-71
2023/08/18 13:25:42;;;;;;;5.78;3.60;;;;;;;28.52;100.00;101356.56;6276403;28;20114;-71
2023/08/18 13:28:43;;;;;;;6.03;4.10;;;;;;;28.64;100.00;101352.38;6290081;28;20044;-71
2023/08/18 13:31:46;;;;;;;6.72;4.32;;;;;;;28.72;100.00;101357.69;6295676;28;20052;-71
2023/08/18 13:34:48;;;;;;;8.75;4.43;;;;;;;28.76;100.00;101347.34;6295279;28;20045;-80
2023/08/18 13:37:50;;;;;;;6.25;4.57;;;;;;;28.69;100.00;101341.84;6295720;28;20051;-71
2023/08/18 13:40:51;;;;;;;6.97;4.28;;;;;;;28.79;100.00;101347.78;6303806;28;20059;-71
2023/08/18 13:43:53;;;;;;;8.07;4.65;;;;;;;28.97;100.00;101343.91;6292321;28;20146;-71
2023/08/18 13:46:54;;;;;;;4.68;3.78;;;;;;;29.05;100.00;101339.22;6300187;28;20462;-71
2023/08/18 13:49:58;;;;;;;4.28;3.67;;;;;;;28.90;100.00;101330.28;6303515;28;20481;-71
2023/08/18 13:52:59;;;;;;;7.47;4.55;;;;;;;28.93;100.00;101326.31;6300012;28;20182;-71
2023/08/18 13:56:00;;;;;;;4.47;3.67;;;;;;;28.95;100.00;101330.56;6291106;28;20056;-71
2023/08/18 13:59:02;;;;;;;5.43;4.35;;;;;;;29.10;100.00;101337.81;6283287;28;20366;-71